Time;durP1;ratioP1;P1;durP2;ratioP2;P2;SDS_P1;SDS_P2;PMS_P1;PMS_P2;Temp;Humidity;BMP_temperature;BMP_pressure;BME280_temperature;BME280_humidity;BME280_pressure;Samples;Min_cycle;Max_cycle;Signal;HPM_P1;HPM_P2
2023/08/19 00:00:06;;;;;;;;;;;;;;;21.52;100.00;101166.00;5033340;28;1009;-79
2023/08/19 00:02:35;;;;;;;;;;;;;;;21.50;100.00;101162.72;5053192;28;1590;-80
2023/08/19 00:05:00;;;;;;;;;;;;;;;21.50;100.00;101157.44;5029895;28;1573;-79
2023/08/19 00:07:25;;;;;;;;;;;;;;;21.47;100.00;101163.94;5034980;28;1318;-79
2023/08/19 00:09:55;;;;;;;;;;;;;;;21.47;100.00;101147.28;5029802;28;1251;-79
2023/08/19 00:12:22;;;;;;;;;;;;;;;21.46;100.00;101150.94;5030234;28;1339;-79
2023/08/19 00:14:51;;;;;;;;;;;;;;;21.44;100.00;101152.94;5033031;28;1996;-78
2023/08/19 00:17:18;;;;;;;;;;;;;;;21.44;100.00;101148.47;5031012;28;1137;-79
2023/08/19 00:19:44;;;;;;;;;;;;;;;21.44;100.00;101142.38;5046209;28;1366;-79
2023/08/19 00:22:12;;;;;;;;;;;;;;;21.45;100.00;101150.13;5030257;28;1232;-79
2023/08/19 00:24:43;;;;;;;;;;;;;;;21.44;100.00;101147.66;5028440;28;1259;-79
2023/08/19 00:27:08;;;;;;;;;;;;;;;21.45;100.00;101144.03;5044026;28;1215;-78
2023/08/19 00:29:33;;;;;;;;;;;;;;;21.44;100.00;101147.66;5037851;28;1713;-79
2023/08/19 00:31:59;;;;;;;;;;;;;;;21.42;100.00;101147.03;5023811;28;1189;-79
2023/08/19 00:34:26;;;;;;;;;;;;;;;21.42;100.00;101139.13;5023482;28;1951;-78
2023/08/19 00:36:54;;;;;;;;;;;;;;;21.40;100.00;101143.78;5024208;28;1399;-78
2023/08/19 00:39:22;;;;;;;;;;;;;;;21.39;100.00;101139.47;5029958;28;1414;-79
2023/08/19 00:41:54;;;;;;;;;;;;;;;21.38;100.00;101143.94;5035593;28;1605;-79
2023/08/19 00:44:22;;;;;;;;;;;;;;;21.39;100.00;101139.47;5033407;28;1518;-78
2023/08/19 00:46:56;;;;;;;;;;;;;;;21.38;100.00;101129.94;5037582;28;1271;-79
2023/08/19 00:49:21;;;;;;;;;;;;;;;21.36;100.00;101140.69;5038549;28;1449;-79
2023/08/19 00:51:47;;;;;;;;;;;;;;;21.36;100.00;101147.78;5039409;28;1201;-79
2023/08/19 00:54:14;;;;;;;;;;;;;;;21.35;100.00;101143.53;5033807;28;1897;-79
2023/08/19 00:56:40;;;;;;;;;;;;;;;21.33;100.00;101140.22;5036801;28;1082;-78
2023/08/19 00:59:07;;;;;;;;;;;;;;;21.32;100.00;101144.69;5035856;28;1330;-79
2023/08/19 01:01:33;;;;;;;;;;;;;;;21.33;100.00;101145.50;5033969;28;1264;-79
2023/08/19 01:04:01;;;;;;;;;;;;;;;21.33;100.00;101143.69;5028148;28;921;-78
2023/08/19 01:06:36;;;;;;;;;;;;;;;21.35;100.00;101143.53;5029261;28;1413;-79
2023/08/19 01:09:04;;;;;;;;;;;;;;;21.34;100.00;101140.06;5035364;28;1178;-78
2023/08/19 01:11:32;;;;;;;;;;;;;;;21.34;100.00;101137.44;5029404;28;921;-79
2023/08/19 01:14:05;;;;;;;;;;;;;;;21.34;100.00;101131.34;5034234;28;1906;-78
2023/08/19 01:16:33;;;;;;;;;;;;;;;21.38;100.00;101132.56;5033117;28;1513;-79
2023/08/19 01:19:00;;;;;;;;;;;;;;;21.32;100.00;101133.31;5028693;28;1276;-79
2023/08/19 01:21:28;;;;;;;;;;;;;;;21.30;100.00;101135.34;5029174;28;1549;-79
2023/08/19 01:23:58;;;;;;;;;;;;;;;21.30;100.00;101130.06;5031757;28;1113;-79
2023/08/19 01:26:30;;;;;;;;;;;;;;;21.29;100.00;101128.41;5028516;28;1256;-79
2023/08/19 01:28:58;;;;;;;;;;;;;;;21.27;100.00;101136.50;5026939;28;1302;-79
2023/08/19 01:31:28;;;;;;;;;;;;;;;21.29;100.00;101128.41;5020873;28;1283;-79
2023/08/19 01:33:54;;;;;;;;;;;;;;;21.26;100.00;101124.31;5025702;28;1925;-78
2023/08/19 01:36:26;;;;;;;;;;;;;;;21.24;100.00;101121.06;5026174;28;1232;-79
2023/08/19 01:38:59;;;;;;;;;;;;;;;21.21;100.00;101122.22;5028284;28;1468;-78
2023/08/19 01:41:28;;;;;;;;;;;;;;;21.21;100.00;101111.69;5026681;28;1308;-79
2023/08/19 01:43:56;;;;;;;;;;;;;;;21.19;100.00;101113.69;5025479;28;1541;-79
2023/08/19 01:46:24;;;;;;;;;;;;;;;21.17;100.00;101105.16;5026336;28;1300;-78
2023/08/19 01:48:49;;;;;;;;;;;;;;;21.15;100.00;101096.59;5034469;28;1108;-79
2023/08/19 01:51:16;;;;;;;;;;;;;;;21.12;100.00;101099.63;5023133;28;1235;-80
2023/08/19 01:53:44;;;;;;;;;;;;;;;21.10;100.00;101100.81;5028896;28;1968;-80
2023/08/19 01:56:11;;;;;;;;;;;;;;;21.08;100.00;101101.00;5032843;28;1219;-79
2023/08/19 01:58:40;;;;;;;;;;;;;;;21.08;100.00;101101.00;5034656;28;1261;-80
2023/08/19 02:01:12;;;;;;;;;;;;;;;21.08;100.00;101090.44;5026690;28;1351;-80
2023/08/19 02:03:39;;;;;;;;;;;;;;;21.08;100.00;101085.19;5051010;28;1204;-80
2023/08/19 02:06:05;;;;;;;;;;;;;;;21.08;100.00;101087.81;5029905;28;1451;-80
2023/08/19 02:08:33;;;;;;;;;;;;;;;21.07;100.00;101088.81;5033106;28;1111;-79
2023/08/19 02:11:04;;;;;;;;;;;;;;;21.09;100.00;101094.72;5030015;28;1424;-79
2023/08/19 02:13:30;;;;;;;;;;;;;;;21.09;100.00;101092.06;5028442;28;1922;-80
2023/08/19 02:15:55;;;;;;;;;;;;;;;21.07;100.00;101083.53;5030565;28;1355;-80
2023/08/19 02:18:21;;;;;;;;;;;;;;;21.07;100.00;101082.72;5023707;28;1237;-80
2023/08/19 02:20:49;;;;;;;;;;;;;;;21.07;100.00;101080.91;5025325;28;1243;-80
2023/08/19 02:23:14;;;;;;;;;;;;;;;21.09;100.00;101088.63;5030234;28;1233;-80
2023/08/19 02:25:44;;;;;;;;;;;;;;;21.10;100.00;101088.44;5030331;28;1088;-79
2023/08/19 02:28:10;;;;;;;;;;;;;;;21.13;100.00;101082.78;5028527;28;1482;-79
2023/08/19 02:30:39;;;;;;;;;;;;;;;21.15;100.00;101086.06;5026524;28;1405;-80
2023/08/19 02:33:07;;;;;;;;;;;;;;;21.16;100.00;101082.44;5026153;28;1985;-80
2023/08/19 02:35:35;;;;;;;;;;;;;;;21.16;100.00;101077.16;5023026;28;1355;-80
2023/08/19 02:38:03;;;;;;;;;;;;;;;21.18;100.00;101074.31;5025371;28;1470;-80
2023/08/19 02:40:31;;;;;;;;;;;;;;;21.19;100.00;101066.22;5046857;28;1286;-79
2023/08/19 02:42:57;;;;;;;;;;;;;;;21.20;100.00;101070.47;5027720;28;1376;-80
2023/08/19 02:45:35;;;;;;;;;;;;;;;21.22;100.00;101065.03;5025204;28;1531;-80
2023/08/19 02:48:00;;;;;;;;;;;;;;;21.23;100.00;101060.56;5035843;28;1367;-80
2023/08/19 02:50:28;;;;;;;;;;;;;;;21.23;100.00;101065.84;5045761;28;1321;-80
2023/08/19 02:52:56;;;;;;;;;;;;;;;21.24;100.00;101056.91;5023914;28;1208;-80
2023/08/19 02:55:23;;;;;;;;;;;;;;;21.25;100.00;101053.28;5027011;28;1973;-80
2023/08/19 02:57:49;;;;;;;;;;;;;;;21.26;100.00;101057.53;5054121;28;1473;-80
2023/08/19 03:00:17;;;;;;;;;;;;;;;21.27;100.00;101061.81;5038680;28;1740;-80
2023/08/19 03:02:48;;;;;;;;;;;;;;;21.28;100.00;101058.19;5042734;28;1136;-80
2023/08/19 03:05:19;;;;;;;;;;;;;;;21.28;100.00;101060.81;5026971;28;1283;-80
2023/08/19 03:07:47;;;;;;;;;;;;;;;21.28;100.00;101050.28;5053675;28;1340;-80
2023/08/19 03:10:12;;;;;;;;;;;;;;;21.28;100.00;101047.63;5030531;28;1577;-80
2023/08/19 03:12:40;;;;;;;;;;;;;;;21.29;100.00;101050.09;5026536;28;1425;-79
2023/08/19 03:15:08;;;;;;;;;;;;;;;21.29;100.00;101054.53;5047690;28;1947;-80
2023/08/19 03:17:36;;;;;;;;;;;;;;;21.30;100.00;101061.47;5025885;28;1454;-80
2023/08/19 03:20:01;;;;;;;;;;;;;;;21.30;100.00;101058.84;5050721;28;1274;-80
2023/08/19 03:22:27;;;;;;;;;;;;;;;21.30;100.00;101062.28;5037376;28;1245;-80
2023/08/19 03:25:06;;;;;;;;;;;;;;;21.30;100.00;101061.47;5034043;28;1114;-80
2023/08/19 03:27:31;;;;;;;;;;;;;;;21.30;100.00;101054.38;5032560;28;1292;-80
2023/08/19 03:30:04;;;;;;;;;;;;;;;21.31;100.00;101047.28;5029613;28;1344;-80
2023/08/19 03:32:39;;;;;;;;;;;;;;;;;;;;;
2023/08/19 03:35:09;;;;;;;;;;;;;;;21.30;100.00;101045.66;5038161;28;1898;-79
2023/08/19 03:37:43;;;;;;;;;;;;;;;21.32;100.00;101043.63;5031315;28;1288;-80
2023/08/19 03:40:14;;;;;;;;;;;;;;;21.30;100.00;101051.72;5034564;28;1216;-81
2023/08/19 03:42:42;;;;;;;;;;;;;;;21.30;100.00;101045.66;5033295;28;1278;-80
2023/08/19 03:45:19;;;;;;;;;;;;;;;21.30;100.00;101045.66;5029026;28;1324;-80
2023/08/19 03:47:47;;;;;;;;;;;;;;;21.30;100.00;101045.66;5029277;28;1481;-80
2023/08/19 03:50:15;;;;;;;;;;;;;;;21.29;100.00;101046.63;5030214;28;1296;-80
2023/08/19 03:52:46;;;;;;;;;;;;;;;21.30;100.00;101051.72;5029781;28;1153;-80
2023/08/19 03:55:13;;;;;;;;;;;;;;;21.31;100.00;101047.28;5029645;28;1959;-80
2023/08/19 03:57:41;;;;;;;;;;;;;;;21.31;100.00;101053.34;5024100;28;1390;-80
2023/08/19 04:00:07;;;;;;;;;;;;;;;21.31;100.00;101057.81;5029828;28;1228;-80
2023/08/19 04:02:32;;;;;;;;;;;;;;;21.30;100.00;101051.72;5046842;28;1268;-80
2023/08/19 04:05:01;;;;;;;;;;;;;;;21.30;100.00;101061.47;5036430;28;1203;-81
2023/08/19 04:07:32;;;;;;;;;;;;;;;21.31;100.00;101058.63;5036650;28;1258;-80
2023/08/19 04:09:57;;;;;;;;;;;;;;;21.31;100.00;101052.53;5033102;28;1211;-80
2023/08/19 04:12:23;;;;;;;;;;;;;;;21.32;100.00;101046.25;5030872;28;1335;-80
2023/08/19 04:14:49;;;;;;;;;;;;;;;21.32;100.00;101048.91;5035784;28;1947;-80
2023/08/19 04:17:16;;;;;;;;;;;;;;;21.30;100.00;101043.81;5036372;28;1324;-80
2023/08/19 04:19:44;;;;;;;;;;;;;;;21.31;100.00;101047.28;5037338;28;1169;-80
2023/08/19 04:22:22;;;;;;;;;;;;;;;21.31;100.00;101042.00;5039974;28;1336;-81
2023/08/19 04:24:54;;;;;;;;;;;;;;;21.30;100.00;101035.09;5032495;28;1232;-80
2023/08/19 04:27:26;;;;;;;;;;;;;;;21.31;100.00;101039.34;5023782;28;1145;-80
2023/08/19 04:29:52;;;;;;;;;;;;;;;21.31;100.00;101039.34;5030190;28;1475;-80
2023/08/19 04:32:20;;;;;;;;;;;;;;;21.31;100.00;101042.00;5033360;28;1378;-80
2023/08/19 04:34:45;;;;;;;;;;;;;;;21.31;100.00;101053.34;5035775;28;1890;-81
2023/08/19 04:37:16;;;;;;;;;;;;;;;21.31;100.00;101057.81;5026138;28;1200;-80
2023/08/19 04:39:44;;;;;;;;;;;;;;;21.31;100.00;101053.34;5032619;28;1207;-80
2023/08/19 04:42:12;;;;;;;;;;;;;;;21.32;100.00;101057.63;5032140;28;1255;-80
2023/08/19 04:44:40;;;;;;;;;;;;;;;21.31;100.00;101057.81;5034876;28;1129;-81
2023/08/19 04:47:09;;;;;;;;;;;;;;;21.31;100.00;101060.47;5027021;28;1307;-80
2023/08/19 04:49:36;;;;;;;;;;;;;;;21.31;100.00;101063.91;5030025;28;1709;-81
2023/08/19 04:52:04;;;;;;;;;;;;;;;21.31;100.00;101057.81;5042299;28;1459;-81
2023/08/19 04:54:29;;;;;;;;;;;;;;;21.29;100.00;101060.66;5044818;28;1955;-80
2023/08/19 04:57:16;;;;;;;;;;;;;;;21.29;100.00;101067.72;5027220;28;1232;-80
2023/08/19 04:59:41;;;;;;;;;;;;;;;21.29;100.00;101067.72;5031398;28;1192;-80
2023/08/19 05:02:06;;;;;;;;;;;;;;;21.28;100.00;101074.84;5027673;28;1510;-80
2023/08/19 05:04:34;;;;;;;;;;;;;;;21.27;100.00;101077.63;5024618;28;1325;-79
2023/08/19 05:07:07;;;;;;;;;;;;;;;21.27;100.00;101077.63;5029892;28;1476;-80
2023/08/19 05:09:38;;;;;;;;;;;;;;;21.28;100.00;101079.28;5027791;28;1556;-80
2023/08/19 05:12:05;;;;;;;;;;;;;;;21.28;100.00;101074.00;5024297;28;1431;-80
2023/08/19 05:14:36;;;;;;;;;;;;;;;21.28;100.00;101074.00;5031043;28;1963;-79
2023/08/19 05:17:02;;;;;;;;;;;;;;;21.28;100.00;101076.66;5031611;28;1255;-79
2023/08/19 05:19:35;;;;;;;;;;;;;;;21.27;100.00;101073.16;5028026;28;1243;-80
2023/08/19 05:22:12;;;;;;;;;;;;;;;21.28;100.00;101069.56;5031015;28;1288;-80
2023/08/19 05:24:41;;;;;;;;;;;;;;;21.29;100.00;101075.66;5028419;28;1282;-80
2023/08/19 05:27:12;;;;;;;;;;;;;;;21.30;100.00;101066.75;5029492;28;1247;-80
2023/08/19 05:29:41;;;;;;;;;;;;;;;21.29;100.00;101070.38;5024738;28;1337;-80
2023/08/19 05:32:12;;;;;;;;;;;;;;;21.30;100.00;101074.66;5028312;28;1235;-80
2023/08/19 05:34:39;;;;;;;;;;;;;;;21.30;100.00;101077.31;5031114;28;1981;-80
2023/08/19 05:37:16;;;;;;;;;;;;;;;21.31;100.00;101073.66;5031503;28;1448;-80
2023/08/19 05:39:41;;;;;;;;;;;;;;;21.30;100.00;101078.13;5024589;28;1537;-80
2023/08/19 05:42:11;;;;;;;;;;;;;;;21.32;100.00;101088.47;5024837;28;1389;-80
2023/08/19 05:44:39;;;;;;;;;;;;;;;21.32;100.00;101086.66;5024513;28;1201;-81
2023/08/19 05:47:09;;;;;;;;;;;;;;;21.33;100.00;101083.00;5025456;28;907;-80
2023/08/19 05:49:42;;;;;;;;;;;;;;;21.35;100.00;101074.91;5035034;28;1335;-80
2023/08/19 05:52:08;;;;;;;;;;;;;;;21.35;100.00;101080.19;5040875;28;1330;-80
2023/08/19 05:54:56;;;;;;;;;;;;;;;21.37;100.00;101091.38;5024640;28;1960;-80
2023/08/19 05:57:24;;;;;;;;;;;;;;;21.37;100.00;101094.81;5022397;28;1379;-80
2023/08/19 05:59:51;;;;;;;;;;;;;;;21.40;100.00;101093.63;5024963;28;1036;-81
2023/08/19 06:02:19;;;;;;;;;;;;;;;21.42;100.00;101092.44;5041461;28;1501;-80
2023/08/19 06:04:50;;;;;;;;;;;;;;;21.44;100.00;101092.22;5021613;28;1339;-80
2023/08/19 06:07:19;;;;;;;;;;;;;;;21.45;100.00;101085.97;5031640;28;1200;-80
2023/08/19 06:09:49;;;;;;;;;;;;;;;21.47;100.00;101081.31;5022845;28;1373;-79
2023/08/19 06:12:20;;;;;;;;;;;;;;;21.48;100.00;101070.56;5028860;28;1328;-80
2023/08/19 06:14:53;;;;;;;;;;;;;;;21.50;100.00;101072.19;5029061;28;1966;-80
2023/08/19 06:17:23;;;;;;;;;;;;;;;21.53;100.00;101077.09;5031854;28;1338;-80
2023/08/19 06:19:56;;;;;;;;;;;;;;;21.53;100.00;101083.19;5027726;28;1323;-80
2023/08/19 06:22:21;;;;;;;;;;;;;;;21.56;100.00;101088.06;5028759;28;1319;-79
2023/08/19 06:24:49;;;;;;;;;;;;;;;21.59;100.00;101092.97;5031651;28;1128;-81
2023/08/19 06:27:20;;;;;;;;;;;;;;;21.60;100.00;101088.50;5027493;28;1358;-81
2023/08/19 06:29:48;;;;;;;;;;;;;;;21.64;100.00;101100.34;5047308;28;1311;-80
2023/08/19 06:32:16;;;;;;;;;;;;;;;21.66;100.00;101109.69;5034937;28;1170;-81
2023/08/19 06:34:43;;;;;;;;;;;;;;;21.70;100.00;101113.56;5029393;28;1890;-80
2023/08/19 06:37:13;;;;;;;;;;;;;;;21.72;100.00;101114.19;5037498;28;1086;-80
2023/08/19 06:39:46;;;;;;;;;;;;;;;21.77;100.00;101121.53;5042524;28;1272;-80
2023/08/19 06:42:16;;;;;;;;;;;;;;;21.79;100.00;101119.50;5036935;28;1239;-80
2023/08/19 06:44:45;;;;;;;;;;;;;;;21.83;100.00;101120.78;5035233;28;1341;-80
2023/08/19 06:47:10;;;;;;;;;;;;;;;21.86;100.00;101124.88;5031626;28;1335;-80
2023/08/19 06:49:38;;;;;;;;;;;;;;;21.89;100.00;101127.13;5033437;28;1511;-81
2023/08/19 06:52:06;;;;;;;;;;;;;;;21.92;100.00;101127.56;5028360;28;1181;-80
2023/08/19 06:54:35;;;;;;;;;;;;;;;21.96;100.00;101126.19;5049094;28;1898;-80
2023/08/19 06:57:09;;;;;;;;;;;;;;;22.01;100.00;101123.75;5030401;28;1265;-80
2023/08/19 07:00:00;;;;;;;;;;;;;;;22.07;100.00;101129.28;5032395;28;1295;-80
2023/08/19 07:02:27;;;;;;;;;;;;;;;22.13;100.00;101131.97;5032379;28;1327;-80
2023/08/19 07:04:59;;;;;;;;;;;;;;;22.20;100.00;101132.84;5026866;28;1294;-79
2023/08/19 07:07:46;;;;;;;;;;;;;;;22.26;100.00;101126.78;5030395;28;1192;-80
2023/08/19 07:10:17;;;;;;;;;;;;;;;22.34;100.00;101133.75;5025968;28;1373;-79
2023/08/19 07:12:48;;;;;;;;;;;;;;;22.40;100.00;101126.88;5025474;28;1439;-79
2023/08/19 07:15:14;;;;;;;;;;;;;;;22.49;100.00;101130.97;5030521;28;1890;-80
2023/08/19 07:18:11;;;;;;;;;;;;;;;22.57;100.00;101133.44;5024936;28;1546;-80
2023/08/19 07:20:37;;;;;;;;;;;;;;;22.69;100.00;101134.53;4999105;28;1267;-80
2023/08/19 07:23:08;;;;;;;;;;;;;;;22.80;100.00;101141.88;5048603;28;1205;-79
2023/08/19 07:25:46;;;;;;;;;;;;;;;22.93;100.00;101142.97;5035227;28;1263;-80
2023/08/19 07:28:16;;;;;;;;;;;;;;;23.01;100.00;101145.47;5040700;28;1492;-80
2023/08/19 07:30:47;;;;;;;;;;;;;;;23.11;100.00;101145.91;5031732;28;1225;-80
2023/08/19 07:33:40;;;;;;;;;;;;;;;23.24;100.00;101137.97;5022587;28;1436;-80
2023/08/19 07:36:06;;;;;;;;;;;;;;;23.39;99.37;101152.84;5029836;28;1295;-79
2023/08/19 07:38:33;;;;;;;;;;;;;;;23.47;98.89;101150.03;5034174;28;1172;-80
2023/08/19 07:40:58;;;;;;;;;;;;;;;23.54;98.39;101150.84;5023430;28;1097;-80
2023/08/19 07:43:34;;;;;;;;;;;;;;;;;;;;;
2023/08/19 07:46:05;;;;;;;;;;;;;;;23.75;97.75;101163.94;5022718;28;1578;-80
2023/08/19 07:48:36;;;;;;;;;;;;;;;23.89;97.13;101169.22;5026439;28;1259;-80
2023/08/19 07:51:04;;;;;;;;;;;;;;;24.03;97.32;101171.66;5038845;28;1510;-80
2023/08/19 07:53:34;;;;;;;;;;;;;;;24.16;95.74;101170.81;5029053;28;1985;-79
2023/08/19 07:56:16;;;;;;;;;;;;;;;24.29;94.90;101176.09;5030812;28;1474;-80
2023/08/19 07:58:42;;;;;;;;;;;;;;;24.46;94.34;101173.03;5046768;28;1437;-79
2023/08/19 08:01:10;;;;;;;;;;;;;;;24.56;93.94;101166.28;5028248;28;1318;-79
2023/08/19 08:03:40;;;;;;;;;;;;;;;24.61;93.98;101194.84;5023262;28;1355;-80
2023/08/19 08:06:23;;;;;;;;;;;;;;;24.66;93.93;101184.41;5027894;28;1534;-79
2023/08/19 08:08:51;;;;;;;;;;;;;;;24.68;93.60;101194.81;5032158;28;1306;-80
2023/08/19 08:11:36;;;;;;;;;;;;;;;24.71;93.82;101192.53;5028968;28;1314;-81
2023/08/19 08:17:34;;;;;;;;;;;;;;;24.78;92.87;101188.03;5031413;28;1415;-80
2023/08/19 08:20:00;;;;;;;;;;;;;;;24.79;92.93;101197.63;5031439;28;1371;-78
2023/08/19 08:22:25;;;;;;;;;;;;;;;24.79;92.30;101181.72;5033633;28;1199;-79
2023/08/19 08:24:50;;;;;;;;;;;;;;;24.82;92.46;101185.75;5026951;28;1298;-79
2023/08/19 08:27:15;;;;;;;;;;;;;;;24.83;92.53;101188.22;5019561;28;1188;-79
2023/08/19 08:30:02;;;;;;;;;;;;;;;24.85;92.49;101201.28;5033142;28;1236;-79
2023/08/19 08:32:27;;;;;;;;;;;;;;;24.85;92.62;101185.34;5026684;28;1192;-79
2023/08/19 08:34:52;;;;;;;;;;;;;;;24.86;92.55;101193.09;5035058;28;1894;-79
2023/08/19 08:37:18;;;;;;;;;;;;;;;24.84;92.78;101195.16;5029095;28;989;-79
2023/08/19 08:39:43;;;;;;;;;;;;;;;24.82;92.33;101205.16;5021440;28;1290;-79
2023/08/19 08:42:22;;;;;;;;;;;;;;;24.82;92.33;101213.09;5038406;28;1089;-80
2023/08/19 08:44:48;;;;;;;;;;;;;;;24.82;92.35;101226.38;5021695;28;1815;-79
2023/08/19 08:47:14;;;;;;;;;;;;;;;24.80;92.22;101220.47;5033605;28;1323;-81
2023/08/19 08:49:40;;;;;;;;;;;;;;;24.80;91.93;101231.09;5033341;28;1373;-78
2023/08/19 08:52:09;;;;;;;;;;;;;;;24.80;92.41;101232.94;5032017;28;1278;-78
2023/08/19 08:54:45;;;;;;;;;;;;;;;24.80;92.79;101236.38;5024817;28;1941;-78
2023/08/19 08:57:10;;;;;;;;;;;;;;;24.80;92.78;101244.34;5021494;28;1136;-78
2023/08/19 08:59:35;;;;;;;;;;;;;;;24.81;92.30;101243.31;5034513;28;1279;-78
2023/08/19 09:02:02;;;;;;;;;;;;;;;24.82;92.57;101247.59;5028571;28;1502;-79
2023/08/19 09:04:28;;;;;;;;;;;;;;;24.83;92.60;101245.75;5027826;28;1386;-79
2023/08/19 09:07:11;;;;;;;;;;;;;;;24.83;92.62;101251.91;5036508;28;1279;-79
2023/08/19 09:09:39;;;;;;;;;;;;;;;24.81;92.88;101243.31;5028538;28;1287;-81
2023/08/19 09:12:06;;;;;;;;;;;;;;;24.82;92.46;101244.94;5033464;28;1235;-81
2023/08/19 09:14:42;;;;;;;;;;;;;;;24.82;92.97;101274.13;5028831;28;1890;-81
2023/08/19 09:17:17;;;;;;;;;;;;;;;24.83;93.13;101273.13;5039297;28;1501;-78
2023/08/19 09:19:42;;;;;;;;;;;;;;;24.86;92.77;101274.53;5025992;28;1217;-78
2023/08/19 09:22:18;;;;;;;;;;;;;;;24.90;92.51;101273.91;5031376;28;1267;-78
2023/08/19 09:24:47;;;;;;;;;;;;;;;24.94;92.83;101278.78;5044273;28;1336;-78
2023/08/19 09:27:31;;;;;;;;;;;;;;;24.94;92.80;101278.78;5044950;28;1543;-78
2023/08/19 09:29:57;;;;;;;;;;;;;;;24.98;92.48;101274.72;5024775;28;1193;-78
2023/08/19 09:32:32;;;;;;;;;;;;;;;25.03;93.00;101288.16;5025119;28;1336;-78
2023/08/19 09:35:19;;;;;;;;;;;;;;;25.09;92.87;101280.22;5026208;28;1898;-79
2023/08/19 09:37:44;;;;;;;;;;;;;;;25.15;92.74;101291.81;5032933;28;1527;-79
2023/08/19 09:40:11;;;;;;;;;;;;;;;25.21;92.22;101298.94;5021889;28;1360;-84
2023/08/19 09:42:37;;;;;;;;;;;;;;;25.28;92.77;101302.38;5026701;28;1202;-85
2023/08/19 09:45:04;;;;;;;;;;;;;;;25.37;92.76;101306.44;5034237;28;1168;-85
2023/08/19 09:47:46;;;;;;;;;;;;;;;25.42;92.25;101308.47;5023515;28;1378;-87
2023/08/19 09:50:12;;;;;;;;;;;;;;;25.48;92.23;101312.13;5037967;28;1359;-85
2023/08/19 09:52:37;;;;;;;;;;;;;;;25.50;92.09;101321.50;5036248;28;1102;-86
2023/08/19 09:55:03;;;;;;;;;;;;;;;25.51;91.91;101328.44;5032242;28;1890;-85
2023/08/19 09:57:47;;;;;;;;;;;;;;;25.52;91.79;101334.56;5031916;28;1268;-84
2023/08/19 10:00:12;;;;;;;;;;;;;;;25.53;91.73;101336.22;5028019;28;1419;-87
2023/08/19 10:02:38;;;;;;;;;;;;;;;25.58;91.71;101328.44;5027952;28;1193;-87
2023/08/19 10:05:04;;;;;;;;;;;;;;;25.64;92.07;101330.22;5031796;28;1386;-85
2023/08/19 10:07:30;;;;;;;;;;;;;;;25.73;92.31;101341.41;5036681;28;1090;-88
2023/08/19 10:10:16;;;;;;;;;;;;;;;25.77;91.57;101347.97;5035087;28;1315;-89
2023/08/19 10:12:43;;;;;;;;;;;;;;;25.84;91.42;101354.88;5027066;28;1352;-86
2023/08/19 10:15:12;;;;;;;;;;;;;;;25.87;91.05;101354.47;5025870;28;1898;-84
2023/08/19 10:17:39;;;;;;;;;;;;;;;25.91;90.11;101358.28;5027640;28;1402;-88
2023/08/19 10:20:25;;;;;;;;;;;;;;;25.89;90.24;101356.88;5054212;28;1330;-88
2023/08/19 10:22:52;;;;;;;;;;;;;;;25.94;90.82;101355.22;5042035;28;1260;-87
2023/08/19 10:25:18;;;;;;;;;;;;;;;26.08;90.96;101349.81;5027578;28;1227;-85
2023/08/19 10:27:43;;;;;;;;;;;;;;;26.36;89.36;101358.19;5022719;28;1307;-87
2023/08/19 10:30:33;;;;;;;;;;;;;;;26.30;89.78;101359.06;5030304;28;1229;-84
2023/08/19 10:33:04;;;;;;;;;;;;;;;26.40;89.87;101367.38;5035246;28;1277;-83
2023/08/19 10:36:10;;;;;;;;;;;;;;;26.46;89.33;101374.53;5026071;28;1953;-87
2023/08/19 10:38:43;;;;;;;;;;;;;;;26.52;88.45;101372.03;5020516;28;1482;-86
2023/08/19 10:41:22;;;;;;;;;;;;;;;26.53;87.51;101386.97;5020767;28;1117;-87
2023/08/19 10:44:06;;;;;;;;;;;;;;;26.59;88.04;101394.06;5019028;28;1340;-86
2023/08/19 10:46:39;;;;;;;;;;;;;;;26.52;87.03;101388.00;5032146;28;1362;-88
2023/08/19 10:49:40;;;;;;;;;;;;;;;26.57;86.37;101385.50;5021953;28;1310;-86
2023/08/19 10:52:05;;;;;;;;;;;;;;;26.54;86.55;101381.41;5019339;28;1286;-84
2023/08/19 10:54:39;;;;;;;;;;;;;;;26.60;87.33;101385.88;5025336;28;1963;-85
2023/08/19 10:57:12;;;;;;;;;;;;;;;26.63;86.53;101403.25;5043606;28;1328;-86
2023/08/19 10:59:47;;;;;;;;;;;;;;;26.60;85.61;101414.31;5033972;28;1300;-86
2023/08/19 11:02:13;;;;;;;;;;;;;;;26.49;86.34;101423.81;5030495;28;1304;-86
2023/08/19 11:04:45;;;;;;;;;;;;;;;26.44;85.34;101434.31;5028815;28;1329;-84
2023/08/19 11:07:10;;;;;;;;;;;;;;;26.37;85.86;101434.28;5028355;28;1413;-89
2023/08/19 11:09:38;;;;;;;;;;;;;;;26.30;85.72;101441.50;5036090;28;1475;-84
2023/08/19 11:12:11;;;;;;;;;;;;;;;26.18;85.59;101446.69;5033623;28;1319;-88
2023/08/19 11:14:37;;;;;;;;;;;;;;;26.18;85.67;101440.56;5030795;28;1890;-87
2023/08/19 11:17:03;;;;;;;;;;;;;;;26.07;85.69;101444.72;5030074;28;1046;-86
2023/08/19 11:19:30;;;;;;;;;;;;;;;26.02;85.43;101463.13;5037890;28;1588;-86
2023/08/19 11:21:58;;;;;;;;;;;;;;;26.03;85.95;101463.94;5036858;28;941;-88
2023/08/19 11:24:34;;;;;;;;;;;;;;;25.99;85.22;101476.88;5037542;28;1202;-87
2023/08/19 11:27:00;;;;;;;;;;;;;;;25.86;84.58;101480.41;5025738;28;1392;-88
2023/08/19 11:29:28;;;;;;;;;;;;;;;25.82;83.30;101505.75;5034370;28;1522;-88
2023/08/19 11:31:54;;;;;;;;;;;;;;;25.62;83.34;101504.94;5029611;28;1437;-88
2023/08/19 11:34:19;;;;;;;;;;;;;;;25.53;83.08;101503.56;5033023;28;1890;-85
2023/08/19 11:37:04;;;;;;;;;;;;;;;25.41;83.50;101501.53;5028716;28;1427;-86
2023/08/19 11:39:33;;;;;;;;;;;;;;;25.37;83.36;101524.19;5026177;28;1315;-85
2023/08/19 11:41:58;;;;;;;;;;;;;;;25.35;83.75;101534.22;5021267;28;1148;-87
2023/08/19 11:44:26;;;;;;;;;;;;;;;25.32;83.46;101542.59;5027926;28;1236;-86
2023/08/19 11:47:09;;;;;;;;;;;;;;;25.31;82.47;101530.34;5021741;28;1514;-85
2023/08/19 11:49:39;;;;;;;;;;;;;;;25.32;83.57;101547.91;5026790;28;1168;-87
2023/08/19 11:52:33;;;;;;;;;;;;;;;;;;;;;
2023/08/19 11:58:27;;;;;;;;;;;;;;;25.33;83.72;101570.78;5016048;28;1269;-87
2023/08/19 12:01:18;;;;;;;;;;;;;;;25.34;84.00;101583.03;5011351;28;1472;-85
2023/08/19 12:04:47;;;;;;;;;;;;;;;;;;;;;
2023/08/19 12:10:52;;;;;;;;;;;;;;;25.11;83.36;101566.69;4913414;28;1406;-87
2023/08/19 12:16:31;;;;;;;;;;;;;;;25.03;83.50;101622.59;4959146;28;1421;-87
2023/08/19 12:19:22;;;;;;;;;;;;;;;25.00;83.36;101618.50;5006542;28;1385;-86
2023/08/19 12:25:25;;;;;;;;;;;;;;;24.87;83.75;101619.28;5005713;28;1330;-86
2023/08/19 12:27:56;;;;;;;;;;;;;;;24.88;83.78;101631.53;5033132;28;1466;-86
2023/08/19 12:34:46;;;;;;;;;;;;;;;24.78;81.38;101647.03;5001726;28;1930;-87
2023/08/19 12:40:19;;;;;;;;;;;;;;;24.65;81.75;101668.19;4995177;28;1275;-87
2023/08/19 12:42:47;;;;;;;;;;;;;;;24.57;82.40;101663.88;5022348;28;1427;-88
2023/08/19 12:54:05;;;;;;;;;;;;;;;24.19;80.98;101660.78;5026658;28;2001;-88
2023/08/19 12:56:33;;;;;;;;;;;;;;;24.26;80.58;101674.91;5030012;28;1200;-85
2023/08/19 12:59:16;;;;;;;;;;;;;;;24.18;80.46;101693.59;5031388;28;1413;-85
2023/08/19 13:01:46;;;;;;;;;;;;;;;24.13;80.82;101685.41;5028987;28;1304;-89
2023/08/19 13:07:22;;;;;;;;;;;;;;;23.97;79.12;101681.25;5024815;28;1268;-85
2023/08/19 13:13:56;;;;;;;;;;;;;;;23.85;79.09;101680.91;5024470;22;1949;-85
2023/08/19 13:16:50;;;;;;;;;;;;;;;23.76;79.46;101679.44;5048032;28;1346;-88
2023/08/19 13:19:33;;;;;;;;;;;;;;;23.72;79.59;101667.56;5051003;28;1059;-85
2023/08/19 13:22:17;;;;;;;;;;;;;;;23.70;79.48;101685.50;5069168;28;1101;-84
2023/08/19 13:24:43;;;;;;;;;;;;;;;23.57;79.02;101680.88;5050658;28;1385;-88
2023/08/19 13:27:46;;;;;;;;;;;;;;;23.48;76.79;101678.53;5073482;28;1101;-86
2023/08/19 13:30:24;;;;;;;;;;;;;;;23.44;71.47;101690.50;5055175;28;1216;-87
2023/08/19 13:36:30;;;;;;;;;;;;;;;22.95;69.40;101717.69;5067208;28;1031;-83
2023/08/19 13:38:56;;;;;;;;;;;;;;;22.74;69.70;101721.84;5050625;28;1336;-88
2023/08/19 13:44:36;;;;;;;;;;;;;;;22.55;70.62;101716.31;4963157;28;1178;-88
2023/08/19 13:50:28;;;;;;;;;;;;;;;22.52;70.85;101706.91;5089965;23;1971;-78
2023/08/19 13:52:54;;;;;;;;;;;;;;;22.52;71.02;101669.88;5051816;28;1390;-79